createdAt,value
2018-02-18T00:02:11.418Z,22.83
2018-02-18T00:04:38.038Z,22.90
2018-02-18T00:07:04.630Z,22.89
2018-02-18T00:09:31.199Z,22.90
2018-02-18T00:11:57.824Z,22.88
2018-02-18T00:14:24.390Z,22.79
2018-02-18T00:16:50.987Z,22.67
2018-02-18T00:19:17.573Z,22.48
2018-02-18T00:21:44.184Z,22.41
2018-02-18T00:24:10.747Z,22.41
2018-02-18T00:26:37.359Z,22.48
2018-02-18T00:29:03.948Z,22.54
2018-02-18T00:31:30.547Z,22.53
2018-02-18T00:33:57.145Z,22.62
2018-02-18T00:36:23.762Z,22.61
2018-02-18T00:38:50.390Z,22.66
2018-02-18T00:41:16.983Z,22.70
2018-02-18T00:43:43.580Z,22.70
2018-02-18T00:46:10.224Z,22.71
2018-02-18T00:48:36.857Z,22.74
2018-02-18T00:51:03.477Z,22.75
2018-02-18T00:53:30.120Z,22.77
2018-02-18T00:55:56.743Z,22.76
2018-02-18T00:58:23.397Z,22.79
2018-02-18T01:00:49.947Z,22.75
2018-02-18T01:03:16.570Z,22.70
2018-02-18T01:05:43.168Z,22.67
2018-02-18T01:08:09.745Z,22.75
2018-02-18T01:10:36.347Z,22.76
2018-02-18T01:13:02.915Z,22.78
2018-02-18T01:15:29.558Z,22.70
2018-02-18T01:17:56.119Z,22.73
2018-02-18T01:20:22.698Z,22.73
2018-02-18T01:22:49.272Z,22.74
2018-02-18T01:25:15.839Z,22.71
2018-02-18T01:27:42.469Z,22.76
2018-02-18T01:30:09.118Z,22.67
2018-02-18T01:32:35.689Z,22.75
2018-02-18T01:35:02.308Z,22.79
2018-02-18T01:37:28.988Z,22.77
2018-02-18T01:39:55.641Z,22.73
2018-02-18T01:42:22.254Z,22.79
2018-02-18T01:44:48.836Z,22.80
2018-02-18T01:47:15.450Z,22.76
2018-02-18T01:49:42.163Z,22.77
2018-02-18T01:54:35.347Z,22.77
2018-02-18T01:57:01.921Z,22.81
2018-02-18T01:59:28.546Z,22.79
2018-02-18T02:01:55.186Z,22.78
2018-02-18T02:04:21.823Z,22.77
2018-02-18T02:06:48.402Z,22.63
2018-02-18T02:09:15.064Z,22.76
2018-02-18T02:11:41.693Z,22.76
2018-02-18T02:14:08.270Z,22.72
2018-02-18T02:16:34.878Z,22.71
2018-02-18T02:19:01.460Z,22.73
2018-02-18T02:21:28.095Z,22.63
2018-02-18T02:23:54.654Z,22.78
2018-02-18T02:26:21.267Z,22.72
2018-02-18T02:28:47.886Z,22.70
2018-02-18T02:31:14.495Z,22.78
2018-02-18T02:33:41.073Z,22.76
2018-02-18T02:36:07.674Z,22.76
2018-02-18T02:38:34.311Z,22.76
2018-02-18T02:41:00.891Z,22.72
2018-02-18T02:43:27.522Z,22.80
2018-02-18T02:45:54.097Z,22.76
2018-02-18T02:48:20.668Z,22.81
2018-02-18T02:50:47.394Z,22.82
2018-02-18T02:53:14.012Z,22.78
2018-02-18T02:55:40.628Z,22.71
2018-02-18T02:58:07.211Z,22.77
2018-02-18T03:00:33.806Z,22.76
2018-02-18T03:03:00.385Z,22.76
2018-02-18T03:05:26.985Z,22.74
2018-02-18T03:07:53.566Z,22.69
2018-02-18T03:10:20.140Z,22.77
2018-02-18T03:12:46.751Z,22.70
2018-02-18T03:15:13.329Z,22.82
2018-02-18T03:17:39.893Z,22.80
2018-02-18T03:20:06.457Z,22.74
2018-02-18T03:22:33.027Z,22.79
2018-02-18T03:24:59.589Z,22.72
2018-02-18T03:27:26.154Z,22.73
2018-02-18T03:29:52.719Z,22.77
2018-02-18T03:32:19.281Z,22.78
2018-02-18T03:34:45.902Z,22.71
2018-02-18T03:37:12.474Z,22.70
2018-02-18T03:39:39.086Z,22.69
2018-02-18T03:42:05.658Z,22.77
2018-02-18T03:44:32.240Z,22.81
2018-02-18T03:46:58.805Z,22.82
2018-02-18T03:49:25.370Z,22.81
2018-02-18T03:51:51.940Z,22.75
2018-02-18T03:54:18.495Z,22.74
2018-02-18T03:56:45.102Z,22.72
2018-02-18T03:59:11.707Z,22.78
2018-02-18T04:01:38.355Z,22.80
2018-02-18T04:04:04.928Z,22.71
2018-02-18T04:06:31.505Z,22.71
2018-02-18T04:08:58.104Z,22.77
2018-02-18T04:11:24.673Z,22.76
2018-02-18T04:13:51.232Z,22.82
2018-02-18T04:16:17.834Z,22.75
2018-02-18T04:18:44.395Z,22.80
2018-02-18T04:21:11.223Z,22.76
2018-02-18T04:23:37.823Z,22.79
2018-02-18T04:26:04.410Z,22.78
2018-02-18T04:28:30.990Z,22.78
2018-02-18T04:30:57.587Z,22.78
2018-02-18T04:33:24.153Z,22.74
2018-02-18T04:35:50.714Z,22.80
2018-02-18T04:38:17.555Z,22.81
2018-02-18T04:40:44.131Z,22.75
2018-02-18T04:43:10.703Z,22.77
2018-02-18T04:45:37.303Z,22.74
2018-02-18T04:48:03.883Z,22.76
2018-02-18T04:50:30.611Z,22.76
2018-02-18T04:52:57.214Z,22.76
2018-02-18T04:55:23.812Z,22.70
2018-02-18T06:59:55.511Z,23.11
2018-02-18T07:02:22.076Z,23.12
2018-02-18T07:04:48.696Z,23.14
2018-02-18T07:07:15.393Z,23.15
2018-02-18T07:09:42.006Z,23.12
2018-02-18T07:12:08.570Z,23.16
2018-02-18T07:14:35.197Z,23.17
2018-02-18T07:17:01.775Z,23.16
2018-02-18T07:19:28.387Z,23.15
2018-02-18T07:21:54.992Z,23.18
2018-02-18T07:24:21.568Z,23.16
2018-02-18T07:26:48.168Z,23.21
2018-02-18T07:29:14.729Z,23.20
2018-02-18T07:31:41.336Z,23.24
2018-02-18T07:34:08.062Z,23.22
2018-02-18T07:36:34.630Z,23.26
2018-02-18T07:39:01.196Z,23.24
2018-02-18T07:41:27.810Z,23.34
2018-02-18T07:43:54.409Z,23.31
2018-02-18T07:46:21.004Z,23.34
2018-02-18T07:48:47.590Z,23.22
2018-02-18T07:51:14.204Z,23.50
2018-02-18T07:53:40.800Z,23.57
2018-02-18T07:56:07.366Z,23.67
2018-02-18T07:58:33.924Z,23.66
2018-02-18T08:01:00.487Z,23.80
2018-02-18T08:03:27.097Z,23.77
2018-02-18T08:05:53.678Z,23.74
2018-02-18T08:08:20.281Z,23.76
2018-02-18T08:10:46.880Z,23.76
2018-02-18T08:13:13.474Z,23.76
2018-02-18T08:15:40.080Z,23.73
2018-02-18T08:18:06.640Z,23.78
2018-02-18T08:20:33.254Z,23.65
2018-02-18T08:22:59.862Z,23.58
2018-02-18T08:25:26.475Z,23.52
2018-02-18T08:27:53.037Z,23.43
2018-02-18T08:30:19.600Z,23.47
2018-02-18T08:32:46.249Z,23.68
2018-02-18T08:35:12.822Z,23.80
2018-02-18T08:37:39.386Z,23.84
2018-02-18T08:40:06.056Z,23.96
2018-02-18T08:42:32.632Z,23.95
2018-02-18T08:44:59.282Z,23.91
2018-02-18T08:47:25.854Z,24.01
2018-02-18T08:49:52.559Z,24.04
2018-02-18T08:52:19.152Z,24.03
2018-02-18T08:54:45.790Z,24.01
2018-02-18T08:57:12.384Z,23.98
2018-02-18T08:59:39.007Z,23.94
2018-02-18T09:02:05.640Z,23.98
2018-02-18T09:04:32.221Z,24.00
2018-02-18T09:06:58.770Z,23.99
2018-02-18T09:09:25.362Z,23.98
2018-02-18T09:11:51.926Z,24.03
2018-02-18T09:14:18.539Z,23.99
2018-02-18T09:16:45.164Z,23.96
2018-02-18T09:19:11.770Z,23.91
2018-02-18T09:21:38.340Z,23.96
2018-02-18T09:24:04.979Z,23.93
2018-02-18T09:26:31.610Z,23.98
2018-02-18T09:28:58.207Z,23.85
2018-02-18T09:31:24.786Z,23.97
2018-02-18T09:33:51.421Z,23.97
2018-02-18T09:36:18.019Z,23.90
2018-02-18T09:38:44.626Z,23.95
2018-02-18T09:41:11.194Z,23.93
2018-02-18T09:43:37.813Z,23.93
2018-02-18T09:46:04.456Z,23.94
2018-02-18T09:48:31.098Z,23.93
2018-02-18T09:50:57.666Z,23.95
2018-02-18T09:53:24.289Z,23.94
2018-02-18T09:55:50.943Z,23.95
2018-02-18T09:58:17.539Z,23.88
2018-02-18T10:00:44.124Z,23.96
2018-02-18T10:03:10.739Z,23.94
2018-02-18T10:05:37.337Z,23.90
2018-02-18T10:08:04.162Z,23.91
2018-02-18T10:10:30.720Z,23.86
2018-02-18T10:12:57.285Z,23.91
2018-02-18T10:15:23.860Z,23.91
2018-02-18T10:17:50.435Z,23.91
2018-02-18T10:20:17.111Z,23.87
2018-02-18T10:22:43.686Z,23.94
2018-02-18T10:25:10.261Z,23.87
2018-02-18T10:27:36.881Z,23.97
2018-02-18T10:30:03.463Z,23.93
2018-02-18T10:32:30.030Z,23.92
2018-02-18T10:34:56.595Z,23.87
2018-02-18T10:37:23.214Z,23.97
2018-02-18T10:39:49.724Z,23.97
2018-02-18T10:42:16.291Z,24.00
2018-02-18T10:44:42.868Z,23.94
2018-02-18T10:47:09.462Z,24.01
2018-02-18T10:49:36.034Z,24.01
2018-02-18T10:52:02.647Z,24.03
2018-02-18T10:54:29.215Z,23.97
2018-02-18T10:56:55.798Z,24.04
2018-02-18T10:59:22.363Z,24.02
2018-02-18T11:01:48.934Z,24.06
2018-02-18T11:04:15.558Z,24.05
2018-02-18T11:06:42.198Z,24.08
2018-02-18T11:09:08.788Z,24.05
2018-02-18T11:11:35.351Z,24.08
2018-02-18T11:14:01.912Z,24.10
2018-02-18T11:16:28.502Z,24.13
2018-02-18T11:18:55.107Z,24.13
2018-02-18T11:21:21.690Z,24.17
2018-02-18T11:23:48.378Z,24.21
2018-02-18T11:26:14.963Z,24.22
2018-02-18T11:28:41.588Z,24.25
2018-02-18T11:31:08.162Z,24.23
2018-02-18T11:33:34.806Z,24.28
2018-02-18T11:36:01.518Z,24.31
2018-02-18T11:38:28.104Z,24.34
2018-02-18T11:40:55.863Z,24.35
2018-02-18T11:43:21.313Z,24.31
2018-02-18T11:45:47.877Z,24.36
2018-02-18T11:48:14.447Z,24.39
2018-02-18T11:50:41.024Z,24.42
2018-02-18T11:53:07.663Z,24.45
2018-02-18T11:55:34.264Z,24.45
2018-02-18T11:58:00.867Z,24.47
2018-02-18T12:00:27.437Z,24.46
2018-02-18T12:02:54.079Z,24.48
2018-02-18T12:05:20.647Z,24.51
2018-02-18T12:07:47.202Z,24.54
2018-02-18T12:10:13.830Z,24.52
2018-02-18T12:12:40.409Z,24.55
2018-02-18T12:15:06.970Z,24.56
2018-02-18T12:17:33.534Z,24.55
2018-02-18T12:20:00.102Z,24.56
2018-02-18T12:22:26.721Z,24.57
2018-02-18T12:24:53.291Z,24.56
2018-02-18T12:27:19.893Z,24.56
2018-02-18T12:29:46.464Z,24.54
2018-02-18T12:32:13.023Z,24.56
2018-02-18T12:34:39.662Z,24.50
2018-02-18T12:37:06.278Z,24.54
2018-02-18T12:39:32.848Z,24.49
2018-02-18T12:41:59.413Z,24.50
2018-02-18T12:44:26.023Z,24.45
2018-02-18T12:46:52.581Z,24.44
2018-02-18T12:49:19.182Z,24.41
2018-02-18T12:51:45.742Z,24.42
2018-02-18T12:54:12.350Z,24.39
2018-02-18T12:56:38.915Z,24.38
2018-02-18T12:59:05.480Z,24.39
2018-02-18T13:01:32.104Z,24.37
2018-02-18T13:03:58.717Z,24.36
2018-02-18T13:06:25.276Z,24.34
2018-02-18T13:08:51.890Z,24.34
2018-02-18T13:11:18.459Z,24.30
2018-02-18T13:13:45.034Z,24.29
2018-02-18T13:16:11.643Z,24.29
2018-02-18T13:18:38.218Z,24.27
2018-02-18T13:21:04.790Z,24.25
2018-02-18T13:23:31.374Z,24.24
2018-02-18T13:25:57.999Z,24.15
2018-02-18T13:28:24.562Z,24.23
2018-02-18T13:30:51.383Z,24.20
2018-02-18T13:33:17.965Z,24.10
2018-02-18T13:35:44.535Z,24.19
2018-02-18T13:38:11.158Z,24.16
2018-02-18T13:40:37.755Z,24.16
2018-02-18T13:43:04.373Z,24.16
2018-02-18T13:45:30.900Z,24.12
2018-02-18T13:47:57.465Z,24.16
2018-02-18T13:50:24.028Z,24.13
2018-02-18T13:52:50.587Z,24.06
2018-02-18T13:55:17.197Z,24.15
2018-02-18T13:57:43.773Z,24.14
2018-02-18T14:00:10.338Z,23.96
2018-02-18T14:02:36.947Z,24.12
2018-02-18T14:05:03.518Z,24.09
2018-02-18T14:07:30.072Z,23.93
2018-02-18T14:09:56.634Z,24.13
2018-02-18T14:12:23.194Z,24.08
2018-02-18T14:14:49.761Z,24.00
2018-02-18T14:20:10.190Z,24.07
2018-02-18T14:22:36.758Z,24.05
2018-02-18T14:25:03.365Z,24.05
2018-02-18T14:27:29.933Z,23.88
2018-02-18T14:29:56.511Z,24.05
2018-02-18T14:32:23.066Z,23.91
2018-02-18T14:34:49.670Z,24.05
2018-02-18T14:37:16.227Z,23.96
2018-02-18T14:39:42.786Z,23.99
2018-02-18T14:42:09.350Z,23.96
2018-02-18T14:44:35.950Z,24.02
2018-02-18T14:47:02.559Z,23.92
2018-02-18T14:49:29.282Z,23.91
2018-02-18T14:51:55.856Z,23.94
2018-02-18T14:54:22.421Z,23.97
2018-02-18T14:56:49.147Z,23.94
2018-02-18T14:59:15.856Z,23.96
2018-02-18T15:01:42.516Z,23.95
2018-02-18T15:04:09.123Z,23.92
2018-02-18T15:06:35.756Z,23.89
2018-02-18T15:09:02.380Z,23.93
2018-02-18T15:11:29.010Z,23.88
2018-02-18T15:13:55.692Z,23.93
2018-02-18T15:16:22.289Z,23.79
2018-02-18T15:18:48.849Z,23.91
2018-02-18T15:21:15.517Z,23.91
2018-02-18T15:23:42.213Z,23.86
2018-02-18T15:26:08.784Z,23.90
2018-02-18T15:28:35.363Z,23.91
2018-02-18T15:31:01.995Z,23.88
2018-02-18T15:33:28.629Z,23.88
2018-02-18T15:35:55.198Z,23.89
2018-02-18T15:38:21.817Z,23.89
2018-02-18T15:40:48.380Z,23.88
2018-02-18T15:43:15.177Z,23.82
2018-02-18T15:45:41.760Z,23.88
2018-02-18T15:48:08.373Z,23.88
2018-02-18T15:50:34.997Z,23.88
2018-02-18T15:53:01.592Z,23.87
2018-02-18T15:55:28.256Z,23.83
2018-02-18T15:57:54.854Z,23.85
2018-02-18T16:00:21.428Z,23.82
2018-02-18T16:02:48.075Z,23.83
2018-02-18T16:05:14.669Z,23.85
2018-02-18T16:07:41.248Z,23.79
2018-02-18T16:10:07.833Z,23.84
2018-02-18T16:12:59.786Z,23.26
2018-02-18T16:15:26.351Z,23.81
2018-02-18T16:17:52.960Z,23.87
2018-02-18T16:20:19.529Z,23.82
2018-02-18T16:22:46.226Z,23.74
2018-02-18T16:25:12.865Z,23.60
2018-02-18T16:27:39.430Z,23.63
2018-02-18T16:30:06.046Z,23.46
2018-02-18T16:32:32.664Z,23.49
2018-02-18T16:34:59.310Z,23.61
2018-02-18T16:37:25.892Z,23.68
2018-02-18T16:39:52.509Z,23.66
2018-02-18T16:42:19.171Z,23.73
2018-02-18T16:44:45.868Z,23.73
2018-02-18T16:47:12.456Z,23.74
2018-02-18T16:49:39.040Z,23.72
2018-02-18T16:52:05.612Z,23.74
2018-02-18T16:54:32.420Z,23.72
2018-02-18T16:56:58.990Z,23.68
2018-02-18T16:59:25.553Z,23.64
2018-02-18T17:01:52.132Z,23.72
2018-02-18T17:04:18.729Z,23.68
2018-02-18T17:06:45.399Z,23.71
2018-02-18T17:09:12.374Z,23.68
2018-02-18T17:11:39.010Z,23.66
2018-02-18T17:14:05.597Z,23.70
2018-02-18T17:16:32.174Z,23.64
2018-02-18T17:18:58.804Z,23.69
2018-02-18T17:21:25.373Z,23.67
2018-02-18T17:23:51.969Z,23.66
2018-02-18T17:26:18.584Z,23.54
2018-02-18T17:28:45.228Z,23.66
2018-02-18T17:31:11.836Z,23.66
2018-02-18T17:33:38.460Z,23.67
2018-02-18T17:36:05.032Z,23.67
2018-02-18T17:38:31.663Z,23.68
2018-02-18T17:40:58.276Z,23.68
2018-02-18T17:43:24.859Z,23.59
2018-02-18T17:45:51.508Z,23.67
2018-02-18T17:48:18.082Z,23.68
2018-02-18T17:50:44.675Z,23.63
2018-02-18T17:53:11.311Z,23.63
2018-02-18T17:55:37.886Z,23.67
2018-02-18T17:58:04.485Z,23.69
2018-02-18T18:00:31.075Z,23.67
2018-02-18T18:02:57.753Z,23.68
2018-02-18T18:05:24.263Z,23.66
2018-02-18T18:07:50.880Z,23.68
2018-02-18T18:10:17.494Z,23.65
2018-02-18T18:12:44.111Z,23.71
2018-02-18T18:15:10.717Z,23.65
2018-02-18T18:17:37.292Z,23.67
2018-02-18T18:20:03.934Z,23.64
2018-02-18T18:22:30.556Z,23.64
2018-02-18T18:24:57.149Z,23.67
2018-02-18T18:27:23.733Z,23.66
2018-02-18T18:29:50.337Z,23.59
2018-02-18T18:32:16.955Z,23.64
2018-02-18T18:34:43.574Z,23.65
2018-02-18T18:37:10.138Z,23.62
2018-02-18T18:39:36.718Z,23.66
2018-02-18T18:42:03.319Z,23.66
2018-02-18T18:44:29.938Z,23.66
2018-02-18T18:46:56.484Z,23.63
2018-02-18T18:49:23.054Z,23.64
2018-02-18T18:51:49.630Z,23.64
2018-02-18T18:54:16.203Z,23.63
2018-02-18T18:56:42.766Z,23.62
2018-02-18T18:59:09.377Z,23.60
2018-02-18T19:01:36.003Z,23.62
2018-02-18T19:04:02.595Z,23.62
2018-02-18T19:06:29.199Z,23.62
2018-02-18T19:08:55.769Z,23.55
2018-02-18T19:11:22.434Z,23.60
2018-02-18T19:13:49.067Z,23.63
2018-02-18T19:16:15.622Z,23.61
2018-02-18T19:18:57.007Z,23.58
2018-02-18T19:21:23.576Z,23.64
2018-02-18T19:23:50.150Z,23.60
2018-02-18T19:26:16.794Z,23.53
2018-02-18T19:28:43.467Z,23.58
2018-02-18T19:31:10.112Z,23.53
2018-02-18T19:33:36.720Z,23.60
2018-02-18T19:36:03.380Z,23.57
2018-02-18T19:38:30.003Z,23.54
2018-02-18T19:40:56.597Z,23.59
2018-02-18T19:43:23.177Z,23.57
2018-02-18T19:45:49.766Z,23.57
2018-02-18T19:48:16.356Z,23.58
2018-02-18T19:50:42.939Z,23.56
2018-02-18T19:53:09.537Z,23.56
2018-02-18T19:55:36.104Z,23.53
2018-02-18T19:58:02.691Z,23.56
2018-02-18T20:00:29.305Z,23.55
2018-02-18T20:02:55.927Z,23.57
2018-02-18T20:05:22.544Z,23.54
2018-02-18T20:07:49.153Z,23.58
2018-02-18T20:10:15.796Z,23.55
2018-02-18T20:12:42.464Z,23.55
2018-02-18T20:15:09.084Z,23.55
2018-02-18T20:17:35.693Z,23.54
2018-02-18T20:20:02.275Z,23.55
2018-02-18T20:22:28.977Z,23.57
2018-02-18T20:24:55.591Z,23.52
2018-02-18T20:27:22.197Z,23.51
2018-02-18T20:29:48.791Z,23.53
2018-02-18T20:32:15.397Z,23.56
2018-02-18T20:34:41.994Z,23.54
2018-02-18T20:37:08.586Z,23.55
2018-02-18T20:39:35.185Z,23.54
2018-02-18T20:42:01.787Z,23.49
2018-02-18T20:44:28.434Z,23.52
2018-02-18T20:46:55.037Z,23.48
2018-02-18T20:49:21.614Z,23.51
2018-02-18T20:51:48.206Z,23.44
2018-02-18T20:54:14.851Z,23.51
2018-02-18T20:56:41.479Z,23.50
2018-02-18T20:59:08.100Z,23.49
2018-02-18T21:01:34.698Z,23.53
2018-02-18T21:04:01.347Z,23.49
2018-02-18T21:06:27.943Z,23.50
2018-02-18T21:08:54.558Z,23.49
2018-02-18T21:11:21.166Z,23.49
2018-02-18T21:13:47.770Z,23.44
2018-02-18T21:16:14.368Z,23.50
2018-02-18T21:18:41.138Z,23.48
2018-02-18T21:21:07.708Z,23.48
2018-02-18T21:23:34.303Z,23.46
2018-02-18T21:26:00.982Z,23.45
2018-02-18T21:28:27.567Z,23.49
2018-02-18T21:30:54.174Z,23.45
2018-02-18T21:33:21.043Z,23.45
2018-02-18T21:35:47.620Z,23.45
2018-02-18T21:38:14.192Z,23.43
2018-02-18T21:40:40.823Z,23.43
2018-02-18T21:43:07.382Z,23.44
2018-02-18T21:45:33.992Z,23.41
2018-02-18T21:48:00.861Z,23.43
2018-02-18T21:50:27.418Z,23.47
2018-02-18T21:52:53.982Z,23.39
2018-02-18T21:55:20.542Z,23.42
2018-02-18T21:57:47.177Z,23.48
2018-02-18T22:00:13.774Z,23.42
2018-02-18T22:02:40.326Z,23.40
2018-02-18T22:05:06.952Z,23.42
2018-02-18T22:07:33.516Z,23.48
2018-02-18T22:10:00.104Z,23.46
2018-02-18T22:12:26.747Z,23.41
2018-02-18T22:14:53.331Z,23.44
2018-02-18T22:17:19.931Z,23.39
2018-02-18T22:19:46.593Z,23.41
2018-02-18T22:22:13.190Z,23.26
2018-02-18T22:24:39.754Z,23.41
2018-02-18T22:27:06.346Z,23.43
2018-02-18T22:29:32.933Z,23.32
2018-02-18T22:31:59.569Z,23.42
2018-02-18T22:34:26.135Z,23.35
2018-02-18T22:36:52.710Z,23.37
2018-02-18T22:39:19.282Z,23.45
2018-02-18T22:41:45.908Z,23.39
2018-02-18T22:44:12.475Z,23.39
2018-02-18T22:46:39.038Z,23.33
2018-02-18T22:49:05.608Z,23.38
2018-02-18T22:51:32.217Z,23.39
2018-02-18T22:53:58.884Z,23.41
2018-02-18T22:56:25.514Z,23.33
2018-02-18T22:58:52.132Z,23.27
2018-02-18T23:01:18.726Z,23.39
2018-02-18T23:03:45.465Z,23.34
2018-02-18T23:06:12.002Z,23.28
2018-02-18T23:08:38.568Z,23.33
2018-02-18T23:11:05.186Z,23.33
2018-02-18T23:13:31.776Z,23.34
2018-02-18T23:15:58.376Z,23.14
2018-02-18T23:18:24.987Z,23.31
2018-02-18T23:20:51.581Z,23.30
2018-02-18T23:23:18.163Z,23.30
2018-02-18T23:25:44.806Z,23.29
2018-02-18T23:28:11.456Z,23.27
2018-02-18T23:30:38.058Z,23.26
2018-02-18T23:33:04.656Z,23.31
2018-02-18T23:35:31.331Z,23.24
2018-02-18T23:37:57.913Z,23.32
2018-02-18T23:40:24.513Z,23.32
2018-02-18T23:42:51.075Z,23.31
2018-02-18T23:45:17.657Z,23.24
2018-02-18T23:47:44.255Z,23.27
2018-02-18T23:50:10.881Z,23.22
2018-02-18T23:52:37.466Z,23.32
2018-02-18T23:55:04.072Z,23.23
2018-02-18T23:57:30.674Z,23.29
2018-02-18T23:59:57.264Z,23.27
